sensor_id;sensor_type;location;lat;lon;timestamp;temperature;humidity
18091;DHT22;9172;49.948;9.208;2023-07-29T00:06:01;18.10;99.90
18091;DHT22;9172;49.948;9.208;2023-07-29T00:08:31;18.10;99.90
18091;DHT22;9172;49.948;9.208;2023-07-29T00:11:00;18.10;99.90
18091;DHT22;9172;49.948;9.208;2023-07-29T00:13:29;18.10;99.90
18091;DHT22;9172;49.948;9.208;2023-07-29T00:15:58;18.10;99.90
18091;DHT22;9172;49.948;9.208;2023-07-29T00:18:26;18.10;99.90
18091;DHT22;9172;49.948;9.208;2023-07-29T00:20:55;18.20;99.90
18091;DHT22;9172;49.948;9.208;2023-07-29T00:23:25;18.20;99.90
18091;DHT22;9172;49.948;9.208;2023-07-29T00:25:55;18.20;99.90
18091;DHT22;9172;49.948;9.208;2023-07-29T00:28:24;18.20;99.90
18091;DHT22;9172;49.948;9.208;2023-07-29T00:30:52;18.20;99.90
18091;DHT22;9172;49.948;9.208;2023-07-29T00:33:22;18.20;99.90
18091;DHT22;9172;49.948;9.208;2023-07-29T00:35:51;18.30;99.90
18091;DHT22;9172;49.948;9.208;2023-07-29T00:38:20;18.20;99.90
18091;DHT22;9172;49.948;9.208;2023-07-29T00:40:49;18.20;99.90
18091;DHT22;9172;49.948;9.208;2023-07-29T00:43:19;18.20;99.90
18091;DHT22;9172;49.948;9.208;2023-07-29T00:45:48;18.30;99.90
18091;DHT22;9172;49.948;9.208;2023-07-29T00:48:19;18.30;99.90
18091;DHT22;9172;49.948;9.208;2023-07-29T00:50:48;18.30;99.90
18091;DHT22;9172;49.948;9.208;2023-07-29T00:53:17;18.20;99.90
18091;DHT22;9172;49.948;9.208;2023-07-29T00:55:45;18.30;99.90
18091;DHT22;9172;49.948;9.208;2023-07-29T00:58:14;18.30;99.90
18091;DHT22;9172;49.948;9.208;2023-07-29T01:00:44;18.20;99.90
18091;DHT22;9172;49.948;9.208;2023-07-29T01:03:13;18.20;99.90
18091;DHT22;9172;49.948;9.208;2023-07-29T01:08:27;18.20;99.90
18091;DHT22;9172;49.948;9.208;2023-07-29T01:10:58;18.20;99.90
18091;DHT22;9172;49.948;9.208;2023-07-29T01:16:09;18.20;99.90
18091;DHT22;9172;49.948;9.208;2023-07-29T01:18:40;18.20;99.90
18091;DHT22;9172;49.948;9.208;2023-07-29T01:21:10;18.20;99.90
18091;DHT22;9172;49.948;9.208;2023-07-29T01:23:40;18.20;99.90
18091;DHT22;9172;49.948;9.208;2023-07-29T01:26:09;18.20;99.90
18091;DHT22;9172;49.948;9.208;2023-07-29T01:28:38;18.20;99.90
18091;DHT22;9172;49.948;9.208;2023-07-29T01:31:10;18.20;99.90
18091;DHT22;9172;49.948;9.208;2023-07-29T01:33:44;18.20;99.90
18091;DHT22;9172;49.948;9.208;2023-07-29T01:36:15;18.30;99.90
18091;DHT22;9172;49.948;9.208;2023-07-29T01:38:46;18.30;99.90
18091;DHT22;9172;49.948;9.208;2023-07-29T01:41:17;18.30;99.90
18091;DHT22;9172;49.948;9.208;2023-07-29T01:43:47;18.20;99.90
18091;DHT22;9172;49.948;9.208;2023-07-29T01:46:17;18.20;99.90
18091;DHT22;9172;49.948;9.208;2023-07-29T01:48:45;18.20;99.90
18091;DHT22;9172;49.948;9.208;2023-07-29T01:51:15;18.20;99.90
18091;DHT22;9172;49.948;9.208;2023-07-29T01:53:44;18.20;99.90
18091;DHT22;9172;49.948;9.208;2023-07-29T02:10:31;18.30;99.90
18091;DHT22;9172;49.948;9.208;2023-07-29T02:28:42;18.30;99.90
18091;DHT22;9172;49.948;9.208;2023-07-29T02:31:15;18.30;99.90
18091;DHT22;9172;49.948;9.208;2023-07-29T02:33:44;18.30;99.90
18091;DHT22;9172;49.948;9.208;2023-07-29T02:36:14;18.30;99.90
18091;DHT22;9172;49.948;9.208;2023-07-29T02:38:45;18.30;99.90
18091;DHT22;9172;49.948;9.208;2023-07-29T02:41:13;18.30;99.90
18091;DHT22;9172;49.948;9.208;2023-07-29T02:43:47;18.30;99.90
18091;DHT22;9172;49.948;9.208;2023-07-29T02:46:15;18.30;99.90
18091;DHT22;9172;49.948;9.208;2023-07-29T02:48:44;18.30;99.90
18091;DHT22;9172;49.948;9.208;2023-07-29T02:51:13;18.30;99.90
18091;DHT22;9172;49.948;9.208;2023-07-29T02:53:42;18.30;99.90
18091;DHT22;9172;49.948;9.208;2023-07-29T02:56:11;18.40;99.90
18091;DHT22;9172;49.948;9.208;2023-07-29T02:58:40;18.30;99.90
18091;DHT22;9172;49.948;9.208;2023-07-29T03:01:08;18.40;99.90
18091;DHT22;9172;49.948;9.208;2023-07-29T03:03:40;18.40;99.90
18091;DHT22;9172;49.948;9.208;2023-07-29T03:06:10;18.40;99.90
18091;DHT22;9172;49.948;9.208;2023-07-29T03:08:39;18.40;99.90
18091;DHT22;9172;49.948;9.208;2023-07-29T03:11:09;18.40;99.90
18091;DHT22;9172;49.948;9.208;2023-07-29T03:13:39;18.40;99.90
18091;DHT22;9172;49.948;9.208;2023-07-29T03:16:15;18.40;99.90
18091;DHT22;9172;49.948;9.208;2023-07-29T03:18:40;18.40;99.90
18091;DHT22;9172;49.948;9.208;2023-07-29T03:21:09;18.30;99.90
18091;DHT22;9172;49.948;9.208;2023-07-29T03:23:40;18.30;99.90
18091;DHT22;9172;49.948;9.208;2023-07-29T03:26:09;18.30;99.90
18091;DHT22;9172;49.948;9.208;2023-07-29T03:28:40;18.30;99.90
18091;DHT22;9172;49.948;9.208;2023-07-29T03:31:10;18.40;99.90
18091;DHT22;9172;49.948;9.208;2023-07-29T03:33:40;18.40;99.90
18091;DHT22;9172;49.948;9.208;2023-07-29T03:36:11;18.40;99.90
18091;DHT22;9172;49.948;9.208;2023-07-29T03:38:41;18.30;99.90
18091;DHT22;9172;49.948;9.208;2023-07-29T03:41:11;18.40;99.90
18091;DHT22;9172;49.948;9.208;2023-07-29T03:43:40;18.30;99.90
18091;DHT22;9172;49.948;9.208;2023-07-29T03:46:10;18.30;99.90
18091;DHT22;9172;49.948;9.208;2023-07-29T03:48:39;18.30;99.90
18091;DHT22;9172;49.948;9.208;2023-07-29T03:51:08;18.40;99.90
18091;DHT22;9172;49.948;9.208;2023-07-29T03:53:38;18.40;99.90
18091;DHT22;9172;49.948;9.208;2023-07-29T03:56:07;18.40;99.90
18091;DHT22;9172;49.948;9.208;2023-07-29T03:58:36;18.40;99.90
18091;DHT22;9172;49.948;9.208;2023-07-29T04:01:05;18.40;99.90
18091;DHT22;9172;49.948;9.208;2023-07-29T04:03:34;18.40;99.90
18091;DHT22;9172;49.948;9.208;2023-07-29T04:06:03;18.40;99.90
18091;DHT22;9172;49.948;9.208;2023-07-29T04:08:33;18.40;99.90
18091;DHT22;9172;49.948;9.208;2023-07-29T04:11:04;18.40;99.90
18091;DHT22;9172;49.948;9.208;2023-07-29T04:13:35;18.40;99.90
18091;DHT22;9172;49.948;9.208;2023-07-29T04:16:05;18.40;99.90
18091;DHT22;9172;49.948;9.208;2023-07-29T04:18:35;18.40;99.90
18091;DHT22;9172;49.948;9.208;2023-07-29T04:21:05;18.40;99.90
18091;DHT22;9172;49.948;9.208;2023-07-29T04:23:35;18.40;99.90
18091;DHT22;9172;49.948;9.208;2023-07-29T04:26:05;18.40;99.90
18091;DHT22;9172;49.948;9.208;2023-07-29T04:28:34;18.40;99.90
18091;DHT22;9172;49.948;9.208;2023-07-29T04:31:02;18.40;99.90
18091;DHT22;9172;49.948;9.208;2023-07-29T04:33:31;18.40;99.90
18091;DHT22;9172;49.948;9.208;2023-07-29T04:36:01;18.40;99.90
18091;DHT22;9172;49.948;9.208;2023-07-29T04:38:32;18.40;99.90
18091;DHT22;9172;49.948;9.208;2023-07-29T04:41:01;18.40;99.90
18091;DHT22;9172;49.948;9.208;2023-07-29T04:43:31;18.40;99.90
18091;DHT22;9172;49.948;9.208;2023-07-29T04:46:00;18.40;99.90
18091;DHT22;9172;49.948;9.208;2023-07-29T04:48:29;18.40;99.90
18091;DHT22;9172;49.948;9.208;2023-07-29T04:50:59;18.40;99.90
18091;DHT22;9172;49.948;9.208;2023-07-29T04:53:28;18.40;99.90
18091;DHT22;9172;49.948;9.208;2023-07-29T04:55:57;18.40;99.90
18091;DHT22;9172;49.948;9.208;2023-07-29T04:58:26;18.40;99.90
18091;DHT22;9172;49.948;9.208;2023-07-29T05:00:56;18.40;99.90
18091;DHT22;9172;49.948;9.208;2023-07-29T05:03:25;18.50;99.90
18091;DHT22;9172;49.948;9.208;2023-07-29T05:05:55;18.50;99.90
18091;DHT22;9172;49.948;9.208;2023-07-29T05:08:25;18.50;99.90
18091;DHT22;9172;49.948;9.208;2023-07-29T05:10:54;18.50;99.90
18091;DHT22;9172;49.948;9.208;2023-07-29T05:13:23;18.50;99.90
18091;DHT22;9172;49.948;9.208;2023-07-29T05:15:52;18.50;99.90
18091;DHT22;9172;49.948;9.208;2023-07-29T05:18:21;18.50;99.90
18091;DHT22;9172;49.948;9.208;2023-07-29T05:20:51;18.50;99.90
18091;DHT22;9172;49.948;9.208;2023-07-29T05:23:20;18.60;99.90
18091;DHT22;9172;49.948;9.208;2023-07-29T05:25:50;18.60;99.90
18091;DHT22;9172;49.948;9.208;2023-07-29T05:30:54;18.60;99.90
18091;DHT22;9172;49.948;9.208;2023-07-29T05:33:23;18.60;99.90
18091;DHT22;9172;49.948;9.208;2023-07-29T05:35:52;18.60;99.90
18091;DHT22;9172;49.948;9.208;2023-07-29T05:38:21;18.60;99.90
18091;DHT22;9172;49.948;9.208;2023-07-29T05:40:50;18.60;99.90
18091;DHT22;9172;49.948;9.208;2023-07-29T05:43:19;18.70;99.90
18091;DHT22;9172;49.948;9.208;2023-07-29T05:45:48;18.70;99.90
18091;DHT22;9172;49.948;9.208;2023-07-29T05:48:18;18.70;99.90
18091;DHT22;9172;49.948;9.208;2023-07-29T05:50:47;18.70;99.90
18091;DHT22;9172;49.948;9.208;2023-07-29T05:53:16;18.70;99.90
18091;DHT22;9172;49.948;9.208;2023-07-29T05:55:45;18.70;99.90
18091;DHT22;9172;49.948;9.208;2023-07-29T05:58:15;18.70;99.90
18091;DHT22;9172;49.948;9.208;2023-07-29T06:00:44;18.70;99.90
18091;DHT22;9172;49.948;9.208;2023-07-29T06:03:15;18.80;99.90
18091;DHT22;9172;49.948;9.208;2023-07-29T06:05:44;18.80;99.90
18091;DHT22;9172;49.948;9.208;2023-07-29T06:08:12;18.80;99.90
18091;DHT22;9172;49.948;9.208;2023-07-29T06:10:41;18.90;99.90
18091;DHT22;9172;49.948;9.208;2023-07-29T06:13:09;18.90;99.90
18091;DHT22;9172;49.948;9.208;2023-07-29T06:15:39;18.90;99.90
18091;DHT22;9172;49.948;9.208;2023-07-29T06:18:08;18.90;99.90
18091;DHT22;9172;49.948;9.208;2023-07-29T06:20:38;19.00;99.90
18091;DHT22;9172;49.948;9.208;2023-07-29T06:23:08;19.00;99.90
18091;DHT22;9172;49.948;9.208;2023-07-29T06:25:36;19.00;99.90
18091;DHT22;9172;49.948;9.208;2023-07-29T06:28:05;19.00;99.90
18091;DHT22;9172;49.948;9.208;2023-07-29T06:30:36;19.00;99.90
18091;DHT22;9172;49.948;9.208;2023-07-29T06:33:04;19.00;99.90
18091;DHT22;9172;49.948;9.208;2023-07-29T06:35:33;19.00;99.90
18091;DHT22;9172;49.948;9.208;2023-07-29T06:38:02;19.00;99.90
18091;DHT22;9172;49.948;9.208;2023-07-29T06:40:32;19.10;99.90
18091;DHT22;9172;49.948;9.208;2023-07-29T06:43:01;19.10;99.90
18091;DHT22;9172;49.948;9.208;2023-07-29T06:45:29;19.10;99.90
18091;DHT22;9172;49.948;9.208;2023-07-29T06:47:59;19.10;99.90
18091;DHT22;9172;49.948;9.208;2023-07-29T06:53:04;19.10;99.90
18091;DHT22;9172;49.948;9.208;2023-07-29T07:01:07;19.10;99.90
18091;DHT22;9172;49.948;9.208;2023-07-29T07:03:37;19.10;99.90
18091;DHT22;9172;49.948;9.208;2023-07-29T07:06:05;19.10;99.90
18091;DHT22;9172;49.948;9.208;2023-07-29T07:08:35;19.00;99.90
18091;DHT22;9172;49.948;9.208;2023-07-29T07:11:04;19.10;99.90
18091;DHT22;9172;49.948;9.208;2023-07-29T07:13:33;19.10;99.90
18091;DHT22;9172;49.948;9.208;2023-07-29T07:16:03;19.10;99.90
18091;DHT22;9172;49.948;9.208;2023-07-29T07:18:32;19.00;99.90
18091;DHT22;9172;49.948;9.208;2023-07-29T07:21:01;19.00;99.90
18091;DHT22;9172;49.948;9.208;2023-07-29T07:23:29;19.00;99.90
18091;DHT22;9172;49.948;9.208;2023-07-29T07:26:00;19.00;99.90
18091;DHT22;9172;49.948;9.208;2023-07-29T07:28:29;19.00;99.90
18091;DHT22;9172;49.948;9.208;2023-07-29T07:30:58;19.00;99.90
18091;DHT22;9172;49.948;9.208;2023-07-29T07:33:27;19.00;99.90
18091;DHT22;9172;49.948;9.208;2023-07-29T07:35:57;19.00;99.90
18091;DHT22;9172;49.948;9.208;2023-07-29T07:38:25;19.00;99.90
18091;DHT22;9172;49.948;9.208;2023-07-29T07:40:55;19.00;99.90
18091;DHT22;9172;49.948;9.208;2023-07-29T07:43:24;19.00;99.90
18091;DHT22;9172;49.948;9.208;2023-07-29T07:45:58;19.00;99.90
18091;DHT22;9172;49.948;9.208;2023-07-29T07:48:27;19.00;99.90
18091;DHT22;9172;49.948;9.208;2023-07-29T07:50:57;19.00;99.90
18091;DHT22;9172;49.948;9.208;2023-07-29T07:53:26;18.90;99.90
18091;DHT22;9172;49.948;9.208;2023-07-29T07:55:56;18.90;99.90
18091;DHT22;9172;49.948;9.208;2023-07-29T07:58:24;18.80;99.90
18091;DHT22;9172;49.948;9.208;2023-07-29T08:00:53;18.80;99.90
18091;DHT22;9172;49.948;9.208;2023-07-29T08:03:24;18.80;99.90
18091;DHT22;9172;49.948;9.208;2023-07-29T08:05:53;18.80;99.90
18091;DHT22;9172;49.948;9.208;2023-07-29T08:08:21;18.80;99.90
18091;DHT22;9172;49.948;9.208;2023-07-29T08:10:51;18.80;99.90
18091;DHT22;9172;49.948;9.208;2023-07-29T08:13:20;18.80;99.90
18091;DHT22;9172;49.948;9.208;2023-07-29T08:15:52;18.70;99.90
18091;DHT22;9172;49.948;9.208;2023-07-29T08:18:21;18.70;99.90
18091;DHT22;9172;49.948;9.208;2023-07-29T08:20:56;18.70;99.90
18091;DHT22;9172;49.948;9.208;2023-07-29T08:23:28;18.70;99.90
18091;DHT22;9172;49.948;9.208;2023-07-29T08:28:40;18.60;99.90
18091;DHT22;9172;49.948;9.208;2023-07-29T08:33:44;18.50;99.90
18091;DHT22;9172;49.948;9.208;2023-07-29T08:38:50;18.50;99.90
18091;DHT22;9172;49.948;9.208;2023-07-29T08:41:21;18.50;99.90
18091;DHT22;9172;49.948;9.208;2023-07-29T08:43:56;18.50;99.90
18091;DHT22;9172;49.948;9.208;2023-07-29T08:46:25;18.50;99.90
18091;DHT22;9172;49.948;9.208;2023-07-29T08:48:55;18.50;99.90
18091;DHT22;9172;49.948;9.208;2023-07-29T08:51:26;18.50;99.90
18091;DHT22;9172;49.948;9.208;2023-07-29T08:53:56;18.50;99.90
18091;DHT22;9172;49.948;9.208;2023-07-29T08:56:26;18.50;99.90
18091;DHT22;9172;49.948;9.208;2023-07-29T08:58:57;18.60;99.90
18091;DHT22;9172;49.948;9.208;2023-07-29T09:01:27;18.60;99.90
18091;DHT22;9172;49.948;9.208;2023-07-29T09:03:59;18.60;99.90
18091;DHT22;9172;49.948;9.208;2023-07-29T09:06:28;18.60;99.90
18091;DHT22;9172;49.948;9.208;2023-07-29T09:08:57;18.60;99.90
18091;DHT22;9172;49.948;9.208;2023-07-29T09:11:27;18.00;99.90
18091;DHT22;9172;49.948;9.208;2023-07-29T09:16:51;19.10;99.90
18091;DHT22;9172;49.948;9.208;2023-07-29T09:19:20;19.30;99.90
18091;DHT22;9172;49.948;9.208;2023-07-29T09:21:50;19.40;99.90
18091;DHT22;9172;49.948;9.208;2023-07-29T09:24:21;19.60;99.90
18091;DHT22;9172;49.948;9.208;2023-07-29T09:26:51;19.90;99.90
18091;DHT22;9172;49.948;9.208;2023-07-29T09:29:23;20.10;99.90
18091;DHT22;9172;49.948;9.208;2023-07-29T09:31:52;20.20;99.90
18091;DHT22;9172;49.948;9.208;2023-07-29T09:34:21;20.40;99.90
18091;DHT22;9172;49.948;9.208;2023-07-29T09:36:52;20.60;99.90
18091;DHT22;9172;49.948;9.208;2023-07-29T09:39:23;20.70;99.90
18091;DHT22;9172;49.948;9.208;2023-07-29T09:41:52;20.80;99.90
18091;DHT22;9172;49.948;9.208;2023-07-29T09:44:22;20.90;99.90
18091;DHT22;9172;49.948;9.208;2023-07-29T09:46:50;20.90;99.90
18091;DHT22;9172;49.948;9.208;2023-07-29T09:49:20;21.00;99.90
18091;DHT22;9172;49.948;9.208;2023-07-29T09:51:50;21.00;99.90
18091;DHT22;9172;49.948;9.208;2023-07-29T09:54:18;21.10;99.90
18091;DHT22;9172;49.948;9.208;2023-07-29T09:56:50;21.10;99.90
18091;DHT22;9172;49.948;9.208;2023-07-29T09:59:21;21.20;99.90
18091;DHT22;9172;49.948;9.208;2023-07-29T10:01:52;21.10;99.90
18091;DHT22;9172;49.948;9.208;2023-07-29T10:04:22;21.10;99.90
18091;DHT22;9172;49.948;9.208;2023-07-29T10:06:52;20.90;99.90
18091;DHT22;9172;49.948;9.208;2023-07-29T10:09:22;21.00;99.90
18091;DHT22;9172;49.948;9.208;2023-07-29T10:11:52;21.10;99.90
18091;DHT22;9172;49.948;9.208;2023-07-29T10:14:24;21.20;99.90
18091;DHT22;9172;49.948;9.208;2023-07-29T10:16:56;21.40;99.90
18091;DHT22;9172;49.948;9.208;2023-07-29T10:19:25;21.40;99.90
18091;DHT22;9172;49.948;9.208;2023-07-29T10:21:57;21.40;99.90
18091;DHT22;9172;49.948;9.208;2023-07-29T10:27:07;21.30;99.90
18091;DHT22;9172;49.948;9.208;2023-07-29T10:29:39;21.30;99.90
18091;DHT22;9172;49.948;9.208;2023-07-29T10:32:11;21.40;99.90
18091;DHT22;9172;49.948;9.208;2023-07-29T10:37:19;21.60;99.90
18091;DHT22;9172;49.948;9.208;2023-07-29T10:39:55;21.70;99.90
18091;DHT22;9172;49.948;9.208;2023-07-29T10:42:25;21.90;99.90
18091;DHT22;9172;49.948;9.208;2023-07-29T10:44:53;21.90;99.90
18091;DHT22;9172;49.948;9.208;2023-07-29T10:47:24;22.10;99.90
18091;DHT22;9172;49.948;9.208;2023-07-29T10:49:54;22.20;99.90
18091;DHT22;9172;49.948;9.208;2023-07-29T10:52:32;22.50;99.90
18091;DHT22;9172;49.948;9.208;2023-07-29T10:55:02;22.50;99.90
18091;DHT22;9172;49.948;9.208;2023-07-29T10:57:35;22.50;99.90
18091;DHT22;9172;49.948;9.208;2023-07-29T11:00:06;22.40;99.90
18091;DHT22;9172;49.948;9.208;2023-07-29T11:02:37;22.60;99.90
18091;DHT22;9172;49.948;9.208;2023-07-29T11:05:07;22.70;99.90
18091;DHT22;9172;49.948;9.208;2023-07-29T11:07:46;22.60;99.90
18091;DHT22;9172;49.948;9.208;2023-07-29T11:10:16;22.50;99.90
18091;DHT22;9172;49.948;9.208;2023-07-29T11:12:46;22.40;99.90
18091;DHT22;9172;49.948;9.208;2023-07-29T11:15:23;22.40;99.90
18091;DHT22;9172;49.948;9.208;2023-07-29T11:17:54;22.40;99.90
18091;DHT22;9172;49.948;9.208;2023-07-29T11:20:24;22.40;99.90
18091;DHT22;9172;49.948;9.208;2023-07-29T11:22:53;22.20;99.90
18091;DHT22;9172;49.948;9.208;2023-07-29T11:25:23;22.20;99.90
18091;DHT22;9172;49.948;9.208;2023-07-29T11:27:53;22.30;99.90
18091;DHT22;9172;49.948;9.208;2023-07-29T11:30:22;22.50;99.90
18091;DHT22;9172;49.948;9.208;2023-07-29T11:32:53;22.60;99.90
18091;DHT22;9172;49.948;9.208;2023-07-29T11:35:23;22.50;99.90
18091;DHT22;9172;49.948;9.208;2023-07-29T11:37:53;22.60;99.90
18091;DHT22;9172;49.948;9.208;2023-07-29T11:40:24;22.60;99.90
18091;DHT22;9172;49.948;9.208;2023-07-29T11:42:53;22.70;99.90
18091;DHT22;9172;49.948;9.208;2023-07-29T11:45:23;22.70;99.90
18091;DHT22;9172;49.948;9.208;2023-07-29T11:47:53;22.70;99.90
18091;DHT22;9172;49.948;9.208;2023-07-29T11:50:22;22.60;99.90
18091;DHT22;9172;49.948;9.208;2023-07-29T11:52:50;22.60;99.90
18091;DHT22;9172;49.948;9.208;2023-07-29T11:55:19;22.60;99.90
18091;DHT22;9172;49.948;9.208;2023-07-29T12:00:27;22.90;99.90
18091;DHT22;9172;49.948;9.208;2023-07-29T12:02:57;23.10;99.90
18091;DHT22;9172;49.948;9.208;2023-07-29T12:05:26;23.30;99.90
18091;DHT22;9172;49.948;9.208;2023-07-29T12:07:55;23.60;99.90
18091;DHT22;9172;49.948;9.208;2023-07-29T12:10:25;23.70;99.90
18091;DHT22;9172;49.948;9.208;2023-07-29T12:12:54;23.70;99.90
18091;DHT22;9172;49.948;9.208;2023-07-29T12:15:27;23.70;99.90
18091;DHT22;9172;49.948;9.208;2023-07-29T12:20:36;23.70;99.90
18091;DHT22;9172;49.948;9.208;2023-07-29T12:23:07;23.80;99.90
18091;DHT22;9172;49.948;9.208;2023-07-29T12:25:36;23.80;99.90
18091;DHT22;9172;49.948;9.208;2023-07-29T12:28:06;23.90;99.90
18091;DHT22;9172;49.948;9.208;2023-07-29T12:30:41;24.10;99.90
18091;DHT22;9172;49.948;9.208;2023-07-29T12:33:28;24.10;99.90
18091;DHT22;9172;49.948;9.208;2023-07-29T12:35:50;24.00;99.90
18091;DHT22;9172;49.948;9.208;2023-07-29T12:38:25;24.00;99.90
18091;DHT22;9172;49.948;9.208;2023-07-29T12:41:00;23.90;99.90
18091;DHT22;9172;49.948;9.208;2023-07-29T12:43:34;23.90;99.90
18091;DHT22;9172;49.948;9.208;2023-07-29T12:46:04;24.00;99.90
18091;DHT22;9172;49.948;9.208;2023-07-29T12:48:35;24.00;99.90
18091;DHT22;9172;49.948;9.208;2023-07-29T12:51:07;24.10;99.90
18091;DHT22;9172;49.948;9.208;2023-07-29T12:53:37;24.10;99.90
18091;DHT22;9172;49.948;9.208;2023-07-29T12:56:06;24.30;99.90
18091;DHT22;9172;49.948;9.208;2023-07-29T12:58:36;24.30;99.90
18091;DHT22;9172;49.948;9.208;2023-07-29T13:01:05;24.30;99.90
18091;DHT22;9172;49.948;9.208;2023-07-29T13:03:33;24.30;99.90
18091;DHT22;9172;49.948;9.208;2023-07-29T13:06:04;24.30;99.90
18091;DHT22;9172;49.948;9.208;2023-07-29T13:08:32;24.50;99.90
18091;DHT22;9172;49.948;9.208;2023-07-29T13:11:01;24.50;99.90
18091;DHT22;9172;49.948;9.208;2023-07-29T13:13:30;24.60;99.90
18091;DHT22;9172;49.948;9.208;2023-07-29T13:16:00;24.60;99.90
18091;DHT22;9172;49.948;9.208;2023-07-29T13:18:29;24.70;99.90
18091;DHT22;9172;49.948;9.208;2023-07-29T13:20:59;24.80;99.90
18091;DHT22;9172;49.948;9.208;2023-07-29T13:23:28;24.80;99.90
18091;DHT22;9172;49.948;9.208;2023-07-29T13:25:57;24.80;99.90
18091;DHT22;9172;49.948;9.208;2023-07-29T13:28:27;24.70;99.90
18091;DHT22;9172;49.948;9.208;2023-07-29T13:30:57;24.60;99.90
18091;DHT22;9172;49.948;9.208;2023-07-29T13:33:26;24.70;99.90
18091;DHT22;9172;49.948;9.208;2023-07-29T13:35:55;24.70;99.90
18091;DHT22;9172;49.948;9.208;2023-07-29T13:38:24;24.80;99.90
18091;DHT22;9172;49.948;9.208;2023-07-29T13:40:54;24.80;99.90
18091;DHT22;9172;49.948;9.208;2023-07-29T13:43:25;24.70;99.90
18091;DHT22;9172;49.948;9.208;2023-07-29T13:45:54;24.50;99.90
18091;DHT22;9172;49.948;9.208;2023-07-29T13:48:23;24.60;99.90
18091;DHT22;9172;49.948;9.208;2023-07-29T13:50:52;24.60;99.90
18091;DHT22;9172;49.948;9.208;2023-07-29T13:53:22;24.60;99.90
18091;DHT22;9172;49.948;9.208;2023-07-29T13:55:50;24.60;99.90
18091;DHT22;9172;49.948;9.208;2023-07-29T13:58:19;24.60;99.90
18091;DHT22;9172;49.948;9.208;2023-07-29T14:00:47;24.60;99.90
18091;DHT22;9172;49.948;9.208;2023-07-29T14:03:16;24.60;99.90
18091;DHT22;9172;49.948;9.208;2023-07-29T14:05:46;24.50;99.90
18091;DHT22;9172;49.948;9.208;2023-07-29T14:08:16;24.50;99.90
18091;DHT22;9172;49.948;9.208;2023-07-29T14:10:45;24.60;99.90
18091;DHT22;9172;49.948;9.208;2023-07-29T14:13:14;24.60;99.90
18091;DHT22;9172;49.948;9.208;2023-07-29T14:15:43;24.70;99.90
18091;DHT22;9172;49.948;9.208;2023-07-29T14:18:11;24.90;99.90
18091;DHT22;9172;49.948;9.208;2023-07-29T14:20:40;24.80;99.90
18091;DHT22;9172;49.948;9.208;2023-07-29T14:23:10;24.80;99.90
18091;DHT22;9172;49.948;9.208;2023-07-29T14:28:25;24.80;99.90
18091;DHT22;9172;49.948;9.208;2023-07-29T14:30:54;24.80;99.90
18091;DHT22;9172;49.948;9.208;2023-07-29T14:33:23;24.80;99.90
18091;DHT22;9172;49.948;9.208;2023-07-29T14:35:54;24.80;99.90
18091;DHT22;9172;49.948;9.208;2023-07-29T14:38:24;24.80;99.90
18091;DHT22;9172;49.948;9.208;2023-07-29T14:40:53;24.90;99.90
18091;DHT22;9172;49.948;9.208;2023-07-29T14:43:23;25.00;99.90
18091;DHT22;9172;49.948;9.208;2023-07-29T14:45:52;25.00;99.90
18091;DHT22;9172;49.948;9.208;2023-07-29T14:48:21;24.90;99.90
18091;DHT22;9172;49.948;9.208;2023-07-29T14:50:49;24.90;99.90
18091;DHT22;9172;49.948;9.208;2023-07-29T14:53:18;24.80;99.90
18091;DHT22;9172;49.948;9.208;2023-07-29T15:01:01;24.60;99.90
18091;DHT22;9172;49.948;9.208;2023-07-29T15:03:30;24.80;99.90
18091;DHT22;9172;49.948;9.208;2023-07-29T15:06:00;24.90;99.90
18091;DHT22;9172;49.948;9.208;2023-07-29T15:08:31;24.90;99.90
18091;DHT22;9172;49.948;9.208;2023-07-29T15:13:38;24.90;99.90
18091;DHT22;9172;49.948;9.208;2023-07-29T15:16:06;24.90;99.90
18091;DHT22;9172;49.948;9.208;2023-07-29T15:18:35;25.00;99.90
18091;DHT22;9172;49.948;9.208;2023-07-29T15:21:04;24.90;99.90
18091;DHT22;9172;49.948;9.208;2023-07-29T15:23:33;24.90;99.90
18091;DHT22;9172;49.948;9.208;2023-07-29T15:26:04;24.80;99.90
18091;DHT22;9172;49.948;9.208;2023-07-29T15:28:35;24.80;99.90
18091;DHT22;9172;49.948;9.208;2023-07-29T15:31:04;24.80;99.90
18091;DHT22;9172;49.948;9.208;2023-07-29T15:33:33;24.80;99.90
18091;DHT22;9172;49.948;9.208;2023-07-29T15:36:02;24.80;99.90
18091;DHT22;9172;49.948;9.208;2023-07-29T15:38:31;24.80;99.90
18091;DHT22;9172;49.948;9.208;2023-07-29T15:41:00;24.80;99.90
18091;DHT22;9172;49.948;9.208;2023-07-29T15:43:29;24.80;99.90
18091;DHT22;9172;49.948;9.208;2023-07-29T15:46:00;24.80;99.90
18091;DHT22;9172;49.948;9.208;2023-07-29T15:48:30;24.80;99.90
18091;DHT22;9172;49.948;9.208;2023-07-29T15:50:59;24.70;99.90
18091;DHT22;9172;49.948;9.208;2023-07-29T15:53:28;24.70;99.90
18091;DHT22;9172;49.948;9.208;2023-07-29T15:55:57;24.60;99.90
18091;DHT22;9172;49.948;9.208;2023-07-29T15:58:27;24.50;99.90
18091;DHT22;9172;49.948;9.208;2023-07-29T16:00:57;24.40;99.90
18091;DHT22;9172;49.948;9.208;2023-07-29T16:03:25;24.40;99.90
18091;DHT22;9172;49.948;9.208;2023-07-29T16:05:54;24.40;99.90
18091;DHT22;9172;49.948;9.208;2023-07-29T16:08:23;24.50;99.90
18091;DHT22;9172;49.948;9.208;2023-07-29T16:10:52;24.50;99.90
18091;DHT22;9172;49.948;9.208;2023-07-29T16:13:20;24.50;99.90
18091;DHT22;9172;49.948;9.208;2023-07-29T16:15:51;24.50;99.90
18091;DHT22;9172;49.948;9.208;2023-07-29T16:18:19;24.50;99.90
18091;DHT22;9172;49.948;9.208;2023-07-29T16:20:48;24.40;99.90
18091;DHT22;9172;49.948;9.208;2023-07-29T16:23:17;24.30;99.90
18091;DHT22;9172;49.948;9.208;2023-07-29T16:25:46;24.20;99.90
18091;DHT22;9172;49.948;9.208;2023-07-29T16:28:16;24.20;99.90
18091;DHT22;9172;49.948;9.208;2023-07-29T16:30:45;24.10;99.90
18091;DHT22;9172;49.948;9.208;2023-07-29T16:33:13;24.00;99.90
18091;DHT22;9172;49.948;9.208;2023-07-29T16:35:42;23.90;99.90
18091;DHT22;9172;49.948;9.208;2023-07-29T16:38:12;23.80;99.90
18091;DHT22;9172;49.948;9.208;2023-07-29T16:40:42;23.80;99.90
18091;DHT22;9172;49.948;9.208;2023-07-29T16:43:10;23.80;99.90
18091;DHT22;9172;49.948;9.208;2023-07-29T16:45:39;23.70;99.90
18091;DHT22;9172;49.948;9.208;2023-07-29T16:48:07;23.50;99.90
18091;DHT22;9172;49.948;9.208;2023-07-29T16:50:36;23.50;99.90
18091;DHT22;9172;49.948;9.208;2023-07-29T16:53:05;23.50;99.90
18091;DHT22;9172;49.948;9.208;2023-07-29T16:55:35;23.40;99.90
18091;DHT22;9172;49.948;9.208;2023-07-29T16:58:05;23.30;99.90
18091;DHT22;9172;49.948;9.208;2023-07-29T17:00:33;23.10;99.90
18091;DHT22;9172;49.948;9.208;2023-07-29T17:03:03;23.00;99.90
18091;DHT22;9172;49.948;9.208;2023-07-29T17:05:32;23.00;99.90
18091;DHT22;9172;49.948;9.208;2023-07-29T17:08:02;23.00;99.90
18091;DHT22;9172;49.948;9.208;2023-07-29T17:10:30;23.00;99.90
18091;DHT22;9172;49.948;9.208;2023-07-29T17:13:00;23.00;99.90
18091;DHT22;9172;49.948;9.208;2023-07-29T17:15:29;23.00;99.90
18091;DHT22;9172;49.948;9.208;2023-07-29T17:17:58;23.00;99.90
18091;DHT22;9172;49.948;9.208;2023-07-29T17:20:27;23.10;99.90
18091;DHT22;9172;49.948;9.208;2023-07-29T17:25:33;23.20;99.90